sensor_id;sensor_type;location;lat;lon;timestamp;temperature;humidity
9450;DHT22;4763;48.370;10.874;2022-12-05T00:00:17;1.60;99.90
9450;DHT22;4763;48.370;10.874;2022-12-05T00:03:04;1.60;99.90
9450;DHT22;4763;48.370;10.874;2022-12-05T00:05:51;1.50;99.90
9450;DHT22;4763;48.370;10.874;2022-12-05T00:08:39;1.50;99.90
9450;DHT22;4763;48.370;10.874;2022-12-05T00:11:28;1.50;99.90
9450;DHT22;4763;48.370;10.874;2022-12-05T00:14:17;1.50;99.90
9450;DHT22;4763;48.370;10.874;2022-12-05T00:17:04;1.50;99.90
9450;DHT22;4763;48.370;10.874;2022-12-05T00:19:51;1.50;99.90
9450;DHT22;4763;48.370;10.874;2022-12-05T00:22:38;1.50;99.90
9450;DHT22;4763;48.370;10.874;2022-12-05T00:25:25;1.50;99.90
9450;DHT22;4763;48.370;10.874;2022-12-05T00:28:12;1.40;99.90
9450;DHT22;4763;48.370;10.874;2022-12-05T00:31:03;1.40;99.90
9450;DHT22;4763;48.370;10.874;2022-12-05T00:33:51;1.40;99.90
9450;DHT22;4763;48.370;10.874;2022-12-05T00:36:38;1.50;99.90
9450;DHT22;4763;48.370;10.874;2022-12-05T00:39:26;1.50;99.90
9450;DHT22;4763;48.370;10.874;2022-12-05T00:42:13;1.50;99.90
9450;DHT22;4763;48.370;10.874;2022-12-05T00:45:00;1.50;99.90
9450;DHT22;4763;48.370;10.874;2022-12-05T00:47:49;1.50;99.90
9450;DHT22;4763;48.370;10.874;2022-12-05T00:50:36;1.50;99.90
9450;DHT22;4763;48.370;10.874;2022-12-05T00:53:23;1.50;99.90
9450;DHT22;4763;48.370;10.874;2022-12-05T00:56:13;1.50;99.90
9450;DHT22;4763;48.370;10.874;2022-12-05T00:59:01;1.50;99.90
9450;DHT22;4763;48.370;10.874;2022-12-05T01:01:49;1.50;99.90
9450;DHT22;4763;48.370;10.874;2022-12-05T01:04:38;1.50;99.90
9450;DHT22;4763;48.370;10.874;2022-12-05T01:07:25;1.50;99.90
9450;DHT22;4763;48.370;10.874;2022-12-05T01:10:12;1.50;99.90
9450;DHT22;4763;48.370;10.874;2022-12-05T01:12:59;1.50;99.90
9450;DHT22;4763;48.370;10.874;2022-12-05T01:15:46;1.50;99.90
9450;DHT22;4763;48.370;10.874;2022-12-05T01:18:33;1.50;99.90
9450;DHT22;4763;48.370;10.874;2022-12-05T01:21:22;1.50;99.90
9450;DHT22;4763;48.370;10.874;2022-12-05T01:24:09;1.50;99.90
9450;DHT22;4763;48.370;10.874;2022-12-05T01:26:56;1.60;99.90
9450;DHT22;4763;48.370;10.874;2022-12-05T01:29:44;1.50;99.90
9450;DHT22;4763;48.370;10.874;2022-12-05T01:32:31;1.60;99.90
9450;DHT22;4763;48.370;10.874;2022-12-05T01:35:18;1.50;99.90
9450;DHT22;4763;48.370;10.874;2022-12-05T01:38:07;1.50;99.90
9450;DHT22;4763;48.370;10.874;2022-12-05T01:41:02;1.50;99.90
9450;DHT22;4763;48.370;10.874;2022-12-05T01:43:57;1.60;99.90
9450;DHT22;4763;48.370;10.874;2022-12-05T01:46:46;1.50;99.90
9450;DHT22;4763;48.370;10.874;2022-12-05T01:49:36;1.50;99.90
9450;DHT22;4763;48.370;10.874;2022-12-05T01:52:26;1.60;99.90
9450;DHT22;4763;48.370;10.874;2022-12-05T01:55:16;1.60;99.90
9450;DHT22;4763;48.370;10.874;2022-12-05T01:58:05;1.60;99.90
9450;DHT22;4763;48.370;10.874;2022-12-05T02:00:54;1.60;99.90
9450;DHT22;4763;48.370;10.874;2022-12-05T02:03:44;1.60;99.90
9450;DHT22;4763;48.370;10.874;2022-12-05T02:06:32;1.60;99.90
9450;DHT22;4763;48.370;10.874;2022-12-05T02:09:19;1.60;99.90
9450;DHT22;4763;48.370;10.874;2022-12-05T02:12:08;1.60;99.90
9450;DHT22;4763;48.370;10.874;2022-12-05T02:15:07;1.60;99.90
9450;DHT22;4763;48.370;10.874;2022-12-05T02:18:07;1.60;99.90
9450;DHT22;4763;48.370;10.874;2022-12-05T02:21:12;1.60;99.90
9450;DHT22;4763;48.370;10.874;2022-12-05T02:24:39;1.60;99.90
9450;DHT22;4763;48.370;10.874;2022-12-05T02:28:02;1.60;99.90
9450;DHT22;4763;48.370;10.874;2022-12-05T02:30:57;1.50;99.90
9450;DHT22;4763;48.370;10.874;2022-12-05T02:33:47;1.50;99.90
9450;DHT22;4763;48.370;10.874;2022-12-05T02:36:39;1.40;99.90
9450;DHT22;4763;48.370;10.874;2022-12-05T02:39:37;1.40;99.90
9450;DHT22;4763;48.370;10.874;2022-12-05T02:42:30;1.50;99.90
9450;DHT22;4763;48.370;10.874;2022-12-05T02:45:19;1.50;99.90
9450;DHT22;4763;48.370;10.874;2022-12-05T02:48:12;1.40;99.90
9450;DHT22;4763;48.370;10.874;2022-12-05T02:51:01;1.40;99.90
9450;DHT22;4763;48.370;10.874;2022-12-05T02:53:49;1.40;99.90
9450;DHT22;4763;48.370;10.874;2022-12-05T02:56:38;1.40;99.90
9450;DHT22;4763;48.370;10.874;2022-12-05T02:59:27;1.40;99.90
9450;DHT22;4763;48.370;10.874;2022-12-05T03:02:24;1.40;99.90
9450;DHT22;4763;48.370;10.874;2022-12-05T03:05:20;1.50;99.90
9450;DHT22;4763;48.370;10.874;2022-12-05T03:08:11;1.40;99.90
9450;DHT22;4763;48.370;10.874;2022-12-05T03:11:02;1.50;99.90
9450;DHT22;4763;48.370;10.874;2022-12-05T03:13:51;1.50;99.90
9450;DHT22;4763;48.370;10.874;2022-12-05T03:16:42;1.50;99.90
9450;DHT22;4763;48.370;10.874;2022-12-05T03:19:34;1.50;99.90
9450;DHT22;4763;48.370;10.874;2022-12-05T03:22:30;1.50;99.90
9450;DHT22;4763;48.370;10.874;2022-12-05T03:25:20;1.50;99.90
9450;DHT22;4763;48.370;10.874;2022-12-05T03:28:15;1.50;99.90
9450;DHT22;4763;48.370;10.874;2022-12-05T03:31:08;1.50;99.90
9450;DHT22;4763;48.370;10.874;2022-12-05T03:33:58;1.50;99.90
9450;DHT22;4763;48.370;10.874;2022-12-05T03:36:49;1.50;99.90
9450;DHT22;4763;48.370;10.874;2022-12-05T03:39:43;1.50;99.90
9450;DHT22;4763;48.370;10.874;2022-12-05T03:42:33;1.50;99.90
9450;DHT22;4763;48.370;10.874;2022-12-05T03:45:27;1.50;99.90
9450;DHT22;4763;48.370;10.874;2022-12-05T03:48:22;1.50;99.90
9450;DHT22;4763;48.370;10.874;2022-12-05T03:51:14;1.60;99.90
9450;DHT22;4763;48.370;10.874;2022-12-05T03:54:05;1.60;99.90
9450;DHT22;4763;48.370;10.874;2022-12-05T03:56:58;1.50;99.90
9450;DHT22;4763;48.370;10.874;2022-12-05T03:59:48;1.60;99.90
9450;DHT22;4763;48.370;10.874;2022-12-05T04:02:40;1.60;99.90
9450;DHT22;4763;48.370;10.874;2022-12-05T04:05:34;1.60;99.90
9450;DHT22;4763;48.370;10.874;2022-12-05T04:08:26;1.60;99.90
9450;DHT22;4763;48.370;10.874;2022-12-05T04:11:17;1.70;99.90
9450;DHT22;4763;48.370;10.874;2022-12-05T04:14:09;1.70;99.90
9450;DHT22;4763;48.370;10.874;2022-12-05T04:17:00;1.70;99.90
9450;DHT22;4763;48.370;10.874;2022-12-05T04:19:53;1.70;99.90
9450;DHT22;4763;48.370;10.874;2022-12-05T04:22:59;1.70;99.90
9450;DHT22;4763;48.370;10.874;2022-12-05T04:25:53;1.70;99.90
9450;DHT22;4763;48.370;10.874;2022-12-05T04:28:48;1.80;99.90
9450;DHT22;4763;48.370;10.874;2022-12-05T04:31:41;1.90;99.90
9450;DHT22;4763;48.370;10.874;2022-12-05T04:34:30;1.80;99.90
9450;DHT22;4763;48.370;10.874;2022-12-05T04:37:21;1.80;99.90
9450;DHT22;4763;48.370;10.874;2022-12-05T04:40:13;1.80;99.90
9450;DHT22;4763;48.370;10.874;2022-12-05T04:43:03;1.80;99.90
9450;DHT22;4763;48.370;10.874;2022-12-05T04:45:53;1.80;99.90
9450;DHT22;4763;48.370;10.874;2022-12-05T04:48:45;1.90;99.90
9450;DHT22;4763;48.370;10.874;2022-12-05T04:51:36;1.90;99.90
9450;DHT22;4763;48.370;10.874;2022-12-05T04:54:27;1.90;99.90
9450;DHT22;4763;48.370;10.874;2022-12-05T04:57:19;1.90;99.90
9450;DHT22;4763;48.370;10.874;2022-12-05T05:00:08;2.00;99.90
9450;DHT22;4763;48.370;10.874;2022-12-05T05:03:03;2.00;99.90
9450;DHT22;4763;48.370;10.874;2022-12-05T05:05:54;2.00;99.90
9450;DHT22;4763;48.370;10.874;2022-12-05T05:08:47;2.00;99.90
9450;DHT22;4763;48.370;10.874;2022-12-05T05:11:35;2.00;99.90
9450;DHT22;4763;48.370;10.874;2022-12-05T05:14:23;2.00;99.90
9450;DHT22;4763;48.370;10.874;2022-12-05T05:17:10;2.00;99.90
9450;DHT22;4763;48.370;10.874;2022-12-05T05:19:57;2.00;99.90
9450;DHT22;4763;48.370;10.874;2022-12-05T05:34:18;2.10;99.90
9450;DHT22;4763;48.370;10.874;2022-12-05T05:37:05;2.10;99.90
9450;DHT22;4763;48.370;10.874;2022-12-05T05:39:53;2.10;99.90
9450;DHT22;4763;48.370;10.874;2022-12-05T05:42:43;2.10;99.90
9450;DHT22;4763;48.370;10.874;2022-12-05T05:45:30;2.10;99.90
9450;DHT22;4763;48.370;10.874;2022-12-05T05:48:17;2.10;99.90
9450;DHT22;4763;48.370;10.874;2022-12-05T05:51:08;2.20;99.90
9450;DHT22;4763;48.370;10.874;2022-12-05T05:53:56;2.10;99.90
9450;DHT22;4763;48.370;10.874;2022-12-05T05:56:44;2.20;99.90
9450;DHT22;4763;48.370;10.874;2022-12-05T05:59:31;2.20;99.90
9450;DHT22;4763;48.370;10.874;2022-12-05T06:02:18;2.20;99.90
9450;DHT22;4763;48.370;10.874;2022-12-05T06:05:06;2.20;99.90
9450;DHT22;4763;48.370;10.874;2022-12-05T06:07:54;2.20;99.90
9450;DHT22;4763;48.370;10.874;2022-12-05T06:10:42;2.20;99.90
9450;DHT22;4763;48.370;10.874;2022-12-05T06:13:39;2.20;99.90
9450;DHT22;4763;48.370;10.874;2022-12-05T06:16:27;2.20;99.90
9450;DHT22;4763;48.370;10.874;2022-12-05T06:19:15;2.20;99.90
9450;DHT22;4763;48.370;10.874;2022-12-05T06:22:02;2.30;99.90
9450;DHT22;4763;48.370;10.874;2022-12-05T06:24:50;2.30;99.90
9450;DHT22;4763;48.370;10.874;2022-12-05T06:27:37;2.30;99.90
9450;DHT22;4763;48.370;10.874;2022-12-05T06:30:24;2.30;99.90
9450;DHT22;4763;48.370;10.874;2022-12-05T06:33:12;2.30;99.90
9450;DHT22;4763;48.370;10.874;2022-12-05T06:36:04;2.30;99.90
9450;DHT22;4763;48.370;10.874;2022-12-05T06:38:52;2.30;99.90
9450;DHT22;4763;48.370;10.874;2022-12-05T06:41:40;2.30;99.90
9450;DHT22;4763;48.370;10.874;2022-12-05T06:44:28;2.40;99.90
9450;DHT22;4763;48.370;10.874;2022-12-05T06:47:16;2.40;99.90
9450;DHT22;4763;48.370;10.874;2022-12-05T06:50:03;2.40;99.90
9450;DHT22;4763;48.370;10.874;2022-12-05T06:52:51;2.40;99.90
9450;DHT22;4763;48.370;10.874;2022-12-05T06:55:38;2.40;99.90
9450;DHT22;4763;48.370;10.874;2022-12-05T06:58:27;2.40;99.90
9450;DHT22;4763;48.370;10.874;2022-12-05T07:01:16;2.40;99.90
9450;DHT22;4763;48.370;10.874;2022-12-05T07:04:22;2.60;99.90
9450;DHT22;4763;48.370;10.874;2022-12-05T07:07:09;2.50;99.90
9450;DHT22;4763;48.370;10.874;2022-12-05T07:09:57;2.50;99.90
9450;DHT22;4763;48.370;10.874;2022-12-05T07:12:45;2.50;99.90
9450;DHT22;4763;48.370;10.874;2022-12-05T07:15:33;2.60;99.90
9450;DHT22;4763;48.370;10.874;2022-12-05T07:18:20;2.50;99.90
9450;DHT22;4763;48.370;10.874;2022-12-05T07:21:11;2.60;99.90
9450;DHT22;4763;48.370;10.874;2022-12-05T07:23:58;2.60;99.90
9450;DHT22;4763;48.370;10.874;2022-12-05T07:26:45;2.50;99.90
9450;DHT22;4763;48.370;10.874;2022-12-05T07:29:32;2.60;99.90
9450;DHT22;4763;48.370;10.874;2022-12-05T07:32:21;2.60;99.90
9450;DHT22;4763;48.370;10.874;2022-12-05T07:35:08;2.60;99.90
9450;DHT22;4763;48.370;10.874;2022-12-05T07:37:55;2.70;99.90
9450;DHT22;4763;48.370;10.874;2022-12-05T07:40:42;2.70;99.90
9450;DHT22;4763;48.370;10.874;2022-12-05T07:43:29;2.70;99.90
9450;DHT22;4763;48.370;10.874;2022-12-05T07:46:17;2.70;99.90
9450;DHT22;4763;48.370;10.874;2022-12-05T07:49:06;2.70;99.90
9450;DHT22;4763;48.370;10.874;2022-12-05T07:51:53;2.80;99.90
9450;DHT22;4763;48.370;10.874;2022-12-05T07:54:40;2.80;99.90
9450;DHT22;4763;48.370;10.874;2022-12-05T07:57:28;2.80;99.90
9450;DHT22;4763;48.370;10.874;2022-12-05T08:00:16;2.80;99.90
9450;DHT22;4763;48.370;10.874;2022-12-05T08:03:03;2.80;99.90
9450;DHT22;4763;48.370;10.874;2022-12-05T08:05:52;2.90;99.90
9450;DHT22;4763;48.370;10.874;2022-12-05T08:08:39;2.90;99.90
9450;DHT22;4763;48.370;10.874;2022-12-05T08:11:31;2.90;99.90
9450;DHT22;4763;48.370;10.874;2022-12-05T08:14:20;2.90;99.90
9450;DHT22;4763;48.370;10.874;2022-12-05T08:17:07;2.90;99.90
9450;DHT22;4763;48.370;10.874;2022-12-05T08:19:54;2.90;99.90
9450;DHT22;4763;48.370;10.874;2022-12-05T08:22:43;3.00;99.90
9450;DHT22;4763;48.370;10.874;2022-12-05T08:25:30;3.10;99.90
9450;DHT22;4763;48.370;10.874;2022-12-05T08:28:18;3.10;99.90
9450;DHT22;4763;48.370;10.874;2022-12-05T08:31:06;3.20;99.90
9450;DHT22;4763;48.370;10.874;2022-12-05T08:33:55;3.30;99.90
9450;DHT22;4763;48.370;10.874;2022-12-05T08:36:43;3.30;99.90
9450;DHT22;4763;48.370;10.874;2022-12-05T08:39:31;3.30;99.90
9450;DHT22;4763;48.370;10.874;2022-12-05T08:42:18;3.30;99.90
9450;DHT22;4763;48.370;10.874;2022-12-05T08:45:06;3.40;99.90
9450;DHT22;4763;48.370;10.874;2022-12-05T08:47:53;3.40;99.90
9450;DHT22;4763;48.370;10.874;2022-12-05T08:50:41;3.50;99.90
9450;DHT22;4763;48.370;10.874;2022-12-05T08:53:28;3.60;99.90
9450;DHT22;4763;48.370;10.874;2022-12-05T08:56:16;3.60;99.90
9450;DHT22;4763;48.370;10.874;2022-12-05T08:59:04;3.60;99.90
9450;DHT22;4763;48.370;10.874;2022-12-05T09:01:51;3.70;99.90
9450;DHT22;4763;48.370;10.874;2022-12-05T09:04:38;3.70;99.90
9450;DHT22;4763;48.370;10.874;2022-12-05T09:07:25;3.70;99.90
9450;DHT22;4763;48.370;10.874;2022-12-05T09:10:13;3.70;99.90
9450;DHT22;4763;48.370;10.874;2022-12-05T09:13:01;3.80;99.90
9450;DHT22;4763;48.370;10.874;2022-12-05T09:15:49;3.80;99.90
9450;DHT22;4763;48.370;10.874;2022-12-05T09:18:36;3.80;99.90
9450;DHT22;4763;48.370;10.874;2022-12-05T09:21:28;3.90;99.90
9450;DHT22;4763;48.370;10.874;2022-12-05T09:24:15;3.80;99.90
9450;DHT22;4763;48.370;10.874;2022-12-05T09:27:02;3.90;99.90
9450;DHT22;4763;48.370;10.874;2022-12-05T09:29:51;3.90;99.90
9450;DHT22;4763;48.370;10.874;2022-12-05T09:32:38;3.90;99.90
9450;DHT22;4763;48.370;10.874;2022-12-05T09:35:25;3.90;99.90
9450;DHT22;4763;48.370;10.874;2022-12-05T09:38:12;3.90;99.90
9450;DHT22;4763;48.370;10.874;2022-12-05T09:41:06;3.90;99.90
9450;DHT22;4763;48.370;10.874;2022-12-05T09:43:59;3.90;99.90
9450;DHT22;4763;48.370;10.874;2022-12-05T09:46:53;3.90;99.90
9450;DHT22;4763;48.370;10.874;2022-12-05T09:49:46;4.00;99.90
9450;DHT22;4763;48.370;10.874;2022-12-05T09:52:37;3.90;99.90
9450;DHT22;4763;48.370;10.874;2022-12-05T09:55:32;4.00;99.90
9450;DHT22;4763;48.370;10.874;2022-12-05T09:58:25;4.00;99.90
9450;DHT22;4763;48.370;10.874;2022-12-05T10:01:32;4.00;99.90
9450;DHT22;4763;48.370;10.874;2022-12-05T10:04:47;4.00;99.90
9450;DHT22;4763;48.370;10.874;2022-12-05T10:07:42;4.00;99.90
9450;DHT22;4763;48.370;10.874;2022-12-05T10:10:40;4.10;99.90
9450;DHT22;4763;48.370;10.874;2022-12-05T10:13:43;4.10;99.90
9450;DHT22;4763;48.370;10.874;2022-12-05T10:16:34;4.20;99.90
9450;DHT22;4763;48.370;10.874;2022-12-05T10:19:27;4.20;99.90
9450;DHT22;4763;48.370;10.874;2022-12-05T10:22:23;4.30;99.90
9450;DHT22;4763;48.370;10.874;2022-12-05T10:25:15;4.30;99.90
9450;DHT22;4763;48.370;10.874;2022-12-05T10:28:10;4.30;99.90
9450;DHT22;4763;48.370;10.874;2022-12-05T10:31:03;4.40;99.90
9450;DHT22;4763;48.370;10.874;2022-12-05T10:33:57;4.40;99.90
9450;DHT22;4763;48.370;10.874;2022-12-05T10:36:54;4.50;99.90
9450;DHT22;4763;48.370;10.874;2022-12-05T10:39:44;4.50;99.90
9450;DHT22;4763;48.370;10.874;2022-12-05T10:42:33;4.50;99.90
9450;DHT22;4763;48.370;10.874;2022-12-05T10:45:22;4.50;99.90
9450;DHT22;4763;48.370;10.874;2022-12-05T10:48:11;4.50;99.90
9450;DHT22;4763;48.370;10.874;2022-12-05T10:50:59;4.50;99.90
9450;DHT22;4763;48.370;10.874;2022-12-05T10:53:48;4.40;99.90
9450;DHT22;4763;48.370;10.874;2022-12-05T10:56:42;4.50;99.90
9450;DHT22;4763;48.370;10.874;2022-12-05T10:59:44;4.50;99.90
9450;DHT22;4763;48.370;10.874;2022-12-05T11:02:32;4.50;99.90
9450;DHT22;4763;48.370;10.874;2022-12-05T11:05:28;4.60;99.90
9450;DHT22;4763;48.370;10.874;2022-12-05T11:08:22;4.60;99.90
9450;DHT22;4763;48.370;10.874;2022-12-05T11:11:21;4.70;99.90
9450;DHT22;4763;48.370;10.874;2022-12-05T11:14:21;4.70;99.90
9450;DHT22;4763;48.370;10.874;2022-12-05T11:17:22;4.70;99.90
9450;DHT22;4763;48.370;10.874;2022-12-05T11:23:28;4.80;99.90
9450;DHT22;4763;48.370;10.874;2022-12-05T11:26:18;4.70;99.90
9450;DHT22;4763;48.370;10.874;2022-12-05T11:29:29;4.80;99.90
9450;DHT22;4763;48.370;10.874;2022-12-05T11:32:21;4.70;99.90
9450;DHT22;4763;48.370;10.874;2022-12-05T11:35:23;4.80;99.90
9450;DHT22;4763;48.370;10.874;2022-12-05T11:38:11;4.80;99.90
9450;DHT22;4763;48.370;10.874;2022-12-05T11:41:14;4.80;99.90
9450;DHT22;4763;48.370;10.874;2022-12-05T11:44:24;4.70;99.90
9450;DHT22;4763;48.370;10.874;2022-12-05T11:47:26;4.70;99.90
9450;DHT22;4763;48.370;10.874;2022-12-05T11:50:31;4.80;99.90
9450;DHT22;4763;48.370;10.874;2022-12-05T11:56:35;4.80;99.90
9450;DHT22;4763;48.370;10.874;2022-12-05T11:59:42;4.80;99.90
9450;DHT22;4763;48.370;10.874;2022-12-05T12:03:00;4.80;99.90
9450;DHT22;4763;48.370;10.874;2022-12-05T12:05:58;4.80;99.90
9450;DHT22;4763;48.370;10.874;2022-12-05T12:09:08;4.80;99.90
9450;DHT22;4763;48.370;10.874;2022-12-05T12:12:01;4.80;99.90
9450;DHT22;4763;48.370;10.874;2022-12-05T12:15:00;4.80;99.90
9450;DHT22;4763;48.370;10.874;2022-12-05T12:17:53;4.90;99.90
9450;DHT22;4763;48.370;10.874;2022-12-05T12:20:51;4.90;99.90
9450;DHT22;4763;48.370;10.874;2022-12-05T12:23:55;4.90;99.90
9450;DHT22;4763;48.370;10.874;2022-12-05T12:26:52;4.80;99.90
9450;DHT22;4763;48.370;10.874;2022-12-05T12:29:54;4.80;99.90
9450;DHT22;4763;48.370;10.874;2022-12-05T12:32:53;4.80;99.90
9450;DHT22;4763;48.370;10.874;2022-12-05T12:35:47;4.80;99.90
9450;DHT22;4763;48.370;10.874;2022-12-05T12:38:56;4.80;99.90
9450;DHT22;4763;48.370;10.874;2022-12-05T12:41:54;4.90;99.90
9450;DHT22;4763;48.370;10.874;2022-12-05T12:45:14;4.90;99.90
9450;DHT22;4763;48.370;10.874;2022-12-05T12:48:16;4.80;99.90
9450;DHT22;4763;48.370;10.874;2022-12-05T12:51:10;4.80;99.90
9450;DHT22;4763;48.370;10.874;2022-12-05T12:54:27;4.80;99.90
9450;DHT22;4763;48.370;10.874;2022-12-05T12:57:24;4.80;99.90
9450;DHT22;4763;48.370;10.874;2022-12-05T13:00:21;4.80;99.90
9450;DHT22;4763;48.370;10.874;2022-12-05T13:03:15;4.80;99.90
9450;DHT22;4763;48.370;10.874;2022-12-05T13:06:07;4.80;99.90
9450;DHT22;4763;48.370;10.874;2022-12-05T13:09:00;4.70;99.90
9450;DHT22;4763;48.370;10.874;2022-12-05T13:11:49;4.70;99.90
9450;DHT22;4763;48.370;10.874;2022-12-05T13:14:38;4.70;99.90
9450;DHT22;4763;48.370;10.874;2022-12-05T13:17:28;4.70;99.90
9450;DHT22;4763;48.370;10.874;2022-12-05T13:20:20;4.70;99.90
9450;DHT22;4763;48.370;10.874;2022-12-05T13:23:12;4.60;99.90
9450;DHT22;4763;48.370;10.874;2022-12-05T13:26:01;4.60;99.90
9450;DHT22;4763;48.370;10.874;2022-12-05T13:28:55;4.60;99.90
9450;DHT22;4763;48.370;10.874;2022-12-05T13:31:44;4.60;99.90
9450;DHT22;4763;48.370;10.874;2022-12-05T13:34:44;4.60;99.90
9450;DHT22;4763;48.370;10.874;2022-12-05T13:37:34;4.60;99.90
9450;DHT22;4763;48.370;10.874;2022-12-05T13:40:49;4.60;99.90
9450;DHT22;4763;48.370;10.874;2022-12-05T13:43:54;4.60;99.90
9450;DHT22;4763;48.370;10.874;2022-12-05T13:46:42;4.60;99.90
9450;DHT22;4763;48.370;10.874;2022-12-05T13:49:35;4.60;99.90
9450;DHT22;4763;48.370;10.874;2022-12-05T13:52:27;4.60;99.90
9450;DHT22;4763;48.370;10.874;2022-12-05T13:55:23;4.60;99.90
9450;DHT22;4763;48.370;10.874;2022-12-05T13:58:36;4.50;99.90
9450;DHT22;4763;48.370;10.874;2022-12-05T14:01:47;4.50;99.90
9450;DHT22;4763;48.370;10.874;2022-12-05T14:04:46;4.40;99.90
9450;DHT22;4763;48.370;10.874;2022-12-05T14:07:38;4.40;99.90
9450;DHT22;4763;48.370;10.874;2022-12-05T14:13:48;4.40;99.90
9450;DHT22;4763;48.370;10.874;2022-12-05T14:16:42;4.30;99.90
9450;DHT22;4763;48.370;10.874;2022-12-05T14:19:44;4.30;99.90
9450;DHT22;4763;48.370;10.874;2022-12-05T14:23:06;4.30;99.90
9450;DHT22;4763;48.370;10.874;2022-12-05T14:26:05;4.30;99.90
9450;DHT22;4763;48.370;10.874;2022-12-05T14:29:06;4.30;99.90
9450;DHT22;4763;48.370;10.874;2022-12-05T14:32:05;4.40;99.90
9450;DHT22;4763;48.370;10.874;2022-12-05T14:35:00;4.30;99.90
9450;DHT22;4763;48.370;10.874;2022-12-05T14:37:51;4.30;99.90
9450;DHT22;4763;48.370;10.874;2022-12-05T14:40:41;4.20;99.90
9450;DHT22;4763;48.370;10.874;2022-12-05T14:43:31;4.30;99.90
9450;DHT22;4763;48.370;10.874;2022-12-05T14:46:23;4.30;99.90
9450;DHT22;4763;48.370;10.874;2022-12-05T14:49:33;4.30;99.90
9450;DHT22;4763;48.370;10.874;2022-12-05T14:52:22;4.30;99.90
9450;DHT22;4763;48.370;10.874;2022-12-05T14:55:12;4.30;99.90
9450;DHT22;4763;48.370;10.874;2022-12-05T14:58:02;4.30;99.90
9450;DHT22;4763;48.370;10.874;2022-12-05T15:00:54;4.30;99.90
9450;DHT22;4763;48.370;10.874;2022-12-05T15:04:03;4.30;99.90
9450;DHT22;4763;48.370;10.874;2022-12-05T15:06:54;4.20;99.90
9450;DHT22;4763;48.370;10.874;2022-12-05T15:12:53;4.20;99.90
9450;DHT22;4763;48.370;10.874;2022-12-05T15:15:43;4.20;99.90
9450;DHT22;4763;48.370;10.874;2022-12-05T15:18:36;4.30;99.90
9450;DHT22;4763;48.370;10.874;2022-12-05T15:21:31;4.20;99.90
9450;DHT22;4763;48.370;10.874;2022-12-05T15:24:19;4.20;99.90
9450;DHT22;4763;48.370;10.874;2022-12-05T15:27:09;4.20;99.90
9450;DHT22;4763;48.370;10.874;2022-12-05T15:29:57;4.10;99.90
9450;DHT22;4763;48.370;10.874;2022-12-05T15:32:44;4.10;99.90
9450;DHT22;4763;48.370;10.874;2022-12-05T15:35:32;4.10;99.90
9450;DHT22;4763;48.370;10.874;2022-12-05T15:38:25;4.10;99.90
9450;DHT22;4763;48.370;10.874;2022-12-05T15:41:15;4.10;99.90
9450;DHT22;4763;48.370;10.874;2022-12-05T15:44:04;4.10;99.90
9450;DHT22;4763;48.370;10.874;2022-12-05T15:46:51;4.10;99.90
9450;DHT22;4763;48.370;10.874;2022-12-05T15:49:39;4.10;99.90
9450;DHT22;4763;48.370;10.874;2022-12-05T15:52:29;4.10;99.90
9450;DHT22;4763;48.370;10.874;2022-12-05T15:55:23;4.10;99.90
9450;DHT22;4763;48.370;10.874;2022-12-05T15:58:20;4.10;99.90
9450;DHT22;4763;48.370;10.874;2022-12-05T16:01:12;4.10;99.90
9450;DHT22;4763;48.370;10.874;2022-12-05T16:04:03;4.10;99.90
9450;DHT22;4763;48.370;10.874;2022-12-05T16:06:55;4.20;99.90
9450;DHT22;4763;48.370;10.874;2022-12-05T16:09:43;4.10;99.90
9450;DHT22;4763;48.370;10.874;2022-12-05T16:12:37;4.10;99.90
9450;DHT22;4763;48.370;10.874;2022-12-05T16:15:25;4.10;99.90
9450;DHT22;4763;48.370;10.874;2022-12-05T16:18:23;4.00;99.90
9450;DHT22;4763;48.370;10.874;2022-12-05T16:21:30;4.00;99.90
9450;DHT22;4763;48.370;10.874;2022-12-05T16:24:20;4.00;99.90
9450;DHT22;4763;48.370;10.874;2022-12-05T16:27:13;4.00;99.90
9450;DHT22;4763;48.370;10.874;2022-12-05T16:30:17;4.00;99.90
9450;DHT22;4763;48.370;10.874;2022-12-05T16:33:06;4.00;99.90
9450;DHT22;4763;48.370;10.874;2022-12-05T16:36:06;4.00;99.90
9450;DHT22;4763;48.370;10.874;2022-12-05T16:39:00;4.00;99.90
9450;DHT22;4763;48.370;10.874;2022-12-05T16:41:47;4.10;99.90
9450;DHT22;4763;48.370;10.874;2022-12-05T16:44:57;4.00;99.90
9450;DHT22;4763;48.370;10.874;2022-12-05T16:47:54;4.10;99.90
9450;DHT22;4763;48.370;10.874;2022-12-05T16:50:42;4.10;99.90
9450;DHT22;4763;48.370;10.874;2022-12-05T16:53:31;4.10;99.90
9450;DHT22;4763;48.370;10.874;2022-12-05T16:56:21;4.10;99.90
9450;DHT22;4763;48.370;10.874;2022-12-05T16:59:20;4.10;99.90
9450;DHT22;4763;48.370;10.874;2022-12-05T17:02:11;4.10;99.90
9450;DHT22;4763;48.370;10.874;2022-12-05T17:05:02;4.10;99.90
9450;DHT22;4763;48.370;10.874;2022-12-05T17:07:58;4.10;99.90
9450;DHT22;4763;48.370;10.874;2022-12-05T17:10:45;4.10;99.90
9450;DHT22;4763;48.370;10.874;2022-12-05T17:13:32;4.00;99.90
9450;DHT22;4763;48.370;10.874;2022-12-05T17:16:20;3.90;99.90
9450;DHT22;4763;48.370;10.874;2022-12-05T17:19:08;3.90;99.90
9450;DHT22;4763;48.370;10.874;2022-12-05T17:22:00;3.90;99.90
9450;DHT22;4763;48.370;10.874;2022-12-05T17:24:54;3.90;99.90
9450;DHT22;4763;48.370;10.874;2022-12-05T17:27:44;3.90;99.90
9450;DHT22;4763;48.370;10.874;2022-12-05T17:30:31;3.90;99.90
9450;DHT22;4763;48.370;10.874;2022-12-05T17:33:19;3.90;99.90
9450;DHT22;4763;48.370;10.874;2022-12-05T17:36:06;3.90;99.90
9450;DHT22;4763;48.370;10.874;2022-12-05T17:38:55;3.90;99.90
9450;DHT22;4763;48.370;10.874;2022-12-05T17:41:42;3.90;99.90
9450;DHT22;4763;48.370;10.874;2022-12-05T17:44:29;3.80;99.90
9450;DHT22;4763;48.370;10.874;2022-12-05T17:47:16;3.80;99.90
9450;DHT22;4763;48.370;10.874;2022-12-05T17:50:04;3.70;99.90
9450;DHT22;4763;48.370;10.874;2022-12-05T17:52:54;3.90;99.90
9450;DHT22;4763;48.370;10.874;2022-12-05T17:55:44;3.90;99.90
9450;DHT22;4763;48.370;10.874;2022-12-05T17:58:33;3.80;99.90
9450;DHT22;4763;48.370;10.874;2022-12-05T18:01:20;3.70;99.90
9450;DHT22;4763;48.370;10.874;2022-12-05T18:04:07;3.70;99.90
9450;DHT22;4763;48.370;10.874;2022-12-05T18:06:54;3.60;99.90
9450;DHT22;4763;48.370;10.874;2022-12-05T18:09:41;3.60;99.90
9450;DHT22;4763;48.370;10.874;2022-12-05T18:12:30;3.60;99.90
9450;DHT22;4763;48.370;10.874;2022-12-05T18:15:17;3.70;99.90
9450;DHT22;4763;48.370;10.874;2022-12-05T18:18:05;3.60;99.90
9450;DHT22;4763;48.370;10.874;2022-12-05T18:20:53;3.60;99.90
9450;DHT22;4763;48.370;10.874;2022-12-05T18:23:40;3.50;99.90
9450;DHT22;4763;48.370;10.874;2022-12-05T18:26:27;3.50;99.90
9450;DHT22;4763;48.370;10.874;2022-12-05T18:29:15;3.50;99.90
9450;DHT22;4763;48.370;10.874;2022-12-05T18:32:02;3.40;99.90
9450;DHT22;4763;48.370;10.874;2022-12-05T18:34:50;3.40;99.90
9450;DHT22;4763;48.370;10.874;2022-12-05T18:37:38;3.40;99.90
9450;DHT22;4763;48.370;10.874;2022-12-05T18:40:25;3.40;99.90
9450;DHT22;4763;48.370;10.874;2022-12-05T18:43:12;3.40;99.90
9450;DHT22;4763;48.370;10.874;2022-12-05T18:46:02;3.30;99.90
9450;DHT22;4763;48.370;10.874;2022-12-05T18:48:49;3.30;99.90
9450;DHT22;4763;48.370;10.874;2022-12-05T18:51:37;3.30;99.90
9450;DHT22;4763;48.370;10.874;2022-12-05T18:54:25;3.30;99.90
9450;DHT22;4763;48.370;10.874;2022-12-05T18:57:12;3.30;99.90
9450;DHT22;4763;48.370;10.874;2022-12-05T18:59:59;3.30;99.90
9450;DHT22;4763;48.370;10.874;2022-12-05T19:02:48;3.40;99.90
9450;DHT22;4763;48.370;10.874;2022-12-05T19:05:35;3.30;99.90